Time;durP1;ratioP1;P1;durP2;ratioP2;P2;SDS_P1;SDS_P2;PMS_P1;PMS_P2;Temp;Humidity;BMP_temperature;BMP_pressure;BME280_temperature;BME280_humidity;BME280_pressure;Samples;Min_cycle;Max_cycle;Signal;HPM_P1;HPM_P2
2021/03/16 00:00:45;;;;;;;59.98;29.35;;;;;;;4.12;88.02;99101.55;1762449;81;21428;-66
2021/03/16 00:03:32;;;;;;;56.45;31.40;;;;;;;4.13;88.07;99103.69;1762562;81;22328;-65
2021/03/16 00:06:04;;;;;;;47.95;24.95;;;;;;;4.11;87.86;99108.09;1759087;81;21181;-65
2021/03/16 00:08:32;;;;;;;60.38;32.58;;;;;;;4.07;87.69;99103.85;1741228;78;21214;-66
2021/03/16 00:11:03;;;;;;;71.95;36.95;;;;;;;4.05;88.07;99106.94;1705751;84;22392;-66
2021/03/16 00:13:31;;;;;;;74.65;37.80;;;;;;;3.99;87.72;99098.40;1691371;84;21243;-65
2021/03/16 00:15:59;;;;;;;70.42;33.98;;;;;;;3.95;87.68;99101.98;1720843;82;21298;-66
2021/03/16 00:18:27;;;;;;;78.57;39.00;;;;;;;3.90;87.84;99097.34;1734855;82;21217;-65
2021/03/16 00:20:55;;;;;;;82.10;40.50;;;;;;;3.85;87.84;99102.28;1734831;82;21257;-67
2021/03/16 00:23:23;;;;;;;79.60;40.85;;;;;;;3.80;87.82;99099.80;1746340;80;21174;-72
2021/03/16 00:25:50;;;;;;;85.07;42.80;;;;;;;3.75;87.86;99099.03;1758018;81;21141;-70
2021/03/16 00:28:18;;;;;;;76.40;38.00;;;;;;;3.71;87.97;99098.73;1757922;81;21448;-70
2021/03/16 00:30:45;;;;;;;65.65;35.52;;;;;;;3.67;88.17;99098.39;1757716;81;21204;-70
2021/03/16 00:33:13;;;;;;;69.37;35.98;;;;;;;3.65;88.17;99094.97;1757882;81;21215;-71
2021/03/16 00:35:41;;;;;;;61.25;33.10;;;;;;;3.63;88.35;99092.84;1758062;80;21194;-71
2021/03/16 00:38:09;;;;;;;66.47;35.55;;;;;;;3.59;88.24;99095.99;1740849;79;21267;-64
2021/03/16 00:40:36;;;;;;;63.83;32.95;;;;;;;3.56;88.29;99089.54;1730697;82;21387;-66
2021/03/16 00:43:05;;;;;;;70.83;37.50;;;;;;;3.54;88.33;99093.50;1731099;82;21247;-63
2021/03/16 00:45:32;;;;;;;74.62;37.73;;;;;;;3.53;88.35;99093.08;1731014;82;21174;-65
2021/03/16 00:48:00;;;;;;;75.00;38.85;;;;;;;3.51;88.05;99094.86;1731019;82;21665;-65
2021/03/16 00:50:30;;;;;;;70.03;35.30;;;;;;;3.51;88.28;99092.71;1731273;82;21213;-66
2021/03/16 00:52:58;;;;;;;66.87;37.03;;;;;;;3.50;88.38;99092.32;1730860;82;21263;-65
2021/03/16 00:55:28;;;;;;;57.20;29.77;;;;;;;3.47;88.45;99094.52;1723969;81;21298;-64
2021/03/16 00:57:57;;;;;;;62.90;34.18;;;;;;;3.47;88.42;99094.52;1713083;82;21718;-64
2021/03/16 01:00:26;;;;;;;66.72;36.83;;;;;;;3.46;88.50;99092.83;1726415;82;21175;-64
2021/03/16 01:02:57;;;;;;;63.87;34.80;;;;;;;3.45;88.27;99080.72;1731120;82;21644;-64
2021/03/16 01:05:24;;;;;;;53.85;28.40;;;;;;;3.39;88.07;99080.86;1731121;82;21342;-63
2021/03/16 01:07:52;;;;;;;54.60;28.35;;;;;;;3.41;88.23;99086.89;1731077;82;21204;-62
2021/03/16 01:10:23;;;;;;;50.25;27.82;;;;;;;3.39;87.64;99083.92;1731242;82;21203;-63
2021/03/16 01:12:51;;;;;;;45.50;25.82;;;;;;;3.39;87.44;99093.87;1731131;82;21204;-65
2021/03/16 01:15:19;;;;;;;53.15;26.82;;;;;;;3.40;87.48;99088.22;1701075;84;21183;-64
2021/03/16 01:17:47;;;;;;;46.75;26.93;;;;;;;3.40;87.55;99089.06;1731075;82;21361;-65
2021/03/16 01:20:19;;;;;;;44.58;26.05;;;;;;;3.39;87.20;99096.48;1731036;82;21638;-64
2021/03/16 01:22:47;;;;;;;38.92;21.60;;;;;;;3.39;87.20;99096.48;1730901;82;21244;-65
2021/03/16 01:25:15;;;;;;;44.05;25.82;;;;;;;3.39;86.90;99093.87;1731117;82;21132;-64
2021/03/16 01:27:44;;;;;;;45.90;24.80;;;;;;;3.38;86.70;99094.75;1731246;82;21655;-66
2021/03/16 01:30:15;;;;;;;39.67;22.45;;;;;;;3.38;86.71;99093.45;1730978;82;22310;-65
2021/03/16 01:32:45;;;;;;;44.98;23.87;;;;;;;3.36;86.77;99089.60;1729974;82;21188;-64
2021/03/16 01:35:15;;;;;;;44.00;24.90;;;;;;;3.35;86.81;99085.72;1706590;82;21196;-65
2021/03/16 01:37:43;;;;;;;39.78;23.75;;;;;;;3.35;86.29;99085.72;1731089;82;21703;-63
2021/03/16 01:40:16;;;;;;;43.63;23.05;;;;;;;3.33;86.14;99078.39;1730814;82;21140;-62
2021/03/16 01:42:44;;;;;;;42.93;23.32;;;;;;;3.30;86.07;99073.28;1731219;82;21438;-64
2021/03/16 01:45:16;;;;;;;49.90;28.12;;;;;;;3.28;86.10;99068.09;1730895;82;21275;-65
2021/03/16 01:47:47;;;;;;;48.10;27.17;;;;;;;3.22;85.67;99059.16;1731210;82;21195;-65
2021/03/16 01:50:20;;;;;;;49.45;28.77;;;;;;;3.19;85.60;99059.67;1730971;82;21251;-65
2021/03/16 01:52:50;;;;;;;44.93;24.87;;;;;;;3.10;85.12;99064.19;1731130;81;21182;-65
2021/03/16 01:55:17;;;;;;;47.27;24.72;;;;;;;3.09;84.95;99071.59;1731159;82;22377;-65
2021/03/16 01:57:47;;;;;;;39.70;21.68;;;;;;;3.07;84.90;99073.38;1731291;82;21641;-64
2021/03/16 02:00:41;;;;;;;42.40;23.70;;;;;;;3.05;84.73;99068.66;1730927;82;21164;-65
2021/03/16 02:03:29;;;;;;;40.98;22.17;;;;;;;3.06;84.80;99069.08;1731084;82;21259;-65
2021/03/16 02:06:20;;;;;;;41.15;22.98;;;;;;;3.05;85.18;99071.25;1731172;82;21668;-64
2021/03/16 02:09:35;;;;;;;44.45;24.72;;;;;;;3.02;84.55;99071.33;1730617;82;22409;-63
2021/03/16 02:12:45;;;;;;;47.80;25.37;;;;;;;3.00;84.51;99077.02;1731280;81;21250;-64
2021/03/16 02:15:36;;;;;;;48.13;26.30;;;;;;;2.97;83.62;99074.91;1731221;82;21195;-64
2021/03/16 02:18:23;;;;;;;58.17;29.80;;;;;;;2.96;83.68;99080.56;1731661;79;21154;-71
2021/03/16 02:21:17;;;;;;;54.42;27.62;;;;;;;2.95;83.35;99084.07;1742073;80;21221;-72
2021/03/16 02:24:20;;;;;;;49.20;26.70;;;;;;;2.91;82.91;99099.33;1757336;81;21714;-72
2021/03/16 02:27:17;;;;;;;46.68;24.77;;;;;;;2.90;83.09;99089.38;1732776;81;21169;-72
2021/03/16 02:32:25;;;;;;;49.73;26.13;;;;;;;2.92;83.40;99091.50;1813764;79;23411;-70
2021/03/16 02:35:15;;;;;;;46.28;24.80;;;;;;;2.86;83.07;99093.37;1743194;77;21652;-63
2021/03/16 02:38:00;;;;;;;41.13;24.07;;;;;;;2.83;83.51;99085.63;1742219;82;21656;-65
2021/03/16 02:40:48;;;;;;;48.50;26.93;;;;;;;2.80;83.44;99088.31;1742426;82;21196;-65
2021/03/16 02:43:34;;;;;;;56.10;28.17;;;;;;;2.73;83.39;99092.33;1742472;82;21188;-63
2021/03/16 02:46:21;;;;;;;53.95;28.35;;;;;;;2.69;83.54;99087.23;1742129;82;21188;-65
2021/03/16 02:49:07;;;;;;;56.53;25.68;;;;;;;2.67;83.81;99095.09;1725073;80;21201;-72
2021/03/16 02:51:53;;;;;;;54.03;28.00;;;;;;;2.64;84.15;99096.43;1672402;85;21704;-72
2021/03/16 02:54:40;;;;;;;60.30;30.65;;;;;;;2.59;83.93;99092.23;1667692;86;21161;-73
2021/03/16 02:57:29;;;;;;;60.52;32.35;;;;;;;2.53;84.09;99089.30;1667872;86;21189;-71
2021/03/16 03:00:17;;;;;;;55.12;29.37;;;;;;;2.48;84.31;99089.84;1644224;86;21829;-72
2021/03/16 03:03:07;;;;;;;52.67;27.02;;;;;;;2.41;84.34;99085.67;1637778;84;21224;-74
2021/03/16 03:05:55;;;;;;;46.95;26.27;;;;;;;2.36;84.38;99083.61;1700989;84;22408;-64
2021/03/16 03:08:45;;;;;;;54.98;28.23;;;;;;;2.30;84.69;99088.47;1678792;85;21215;-64
2021/03/16 03:11:33;;;;;;;55.83;29.57;;;;;;;2.24;84.67;99081.67;1713174;83;21202;-64
2021/03/16 03:14:20;;;;;;;50.52;27.10;;;;;;;2.19;84.69;99083.52;1712993;83;21615;-64
2021/03/16 03:17:06;;;;;;;51.33;25.55;;;;;;;2.16;84.77;99087.45;1712966;83;21143;-64
2021/03/16 03:19:53;;;;;;;44.25;25.12;;;;;;;2.13;84.70;99085.38;1719264;80;21357;-73
2021/03/16 03:23:06;;;;;;;59.70;27.58;;;;;;;2.06;84.84;99079.44;1692481;84;21172;-71
2021/03/16 03:26:05;;;;;;;56.73;28.85;;;;;;;2.00;85.07;99087.33;1606028;89;21194;-73
2021/03/16 03:28:51;;;;;;;48.78;25.27;;;;;;;1.91;85.00;99089.69;1605458;89;21664;-73
2021/03/16 03:31:44;;;;;;;48.83;25.85;;;;;;;1.86;85.07;99092.36;1621041;87;21711;-71
2021/03/16 03:34:33;;;;;;;55.25;26.70;;;;;;;1.83;85.14;99085.91;1665491;80;21205;-64
2021/03/16 03:37:22;;;;;;;55.48;28.65;;;;;;;1.80;85.20;99087.27;1686386;85;21241;-65
2021/03/16 03:40:10;;;;;;;54.23;27.52;;;;;;;1.74;85.25;99091.27;1686493;85;21238;-65
2021/03/16 03:42:58;;;;;;;64.50;28.67;;;;;;;1.67;85.38;99093.56;1686356;85;21174;-64
2021/03/16 03:45:44;;;;;;;54.63;27.95;;;;;;;1.62;85.61;99090.20;1686052;85;21759;-64
2021/03/16 03:48:31;;;;;;;51.42;26.87;;;;;;;1.57;85.82;99083.79;1665875;82;21465;-71
2021/03/16 03:51:19;;;;;;;59.88;28.70;;;;;;;1.52;85.95;99084.31;1632371;87;21726;-71
2021/03/16 03:54:05;;;;;;;51.33;27.50;;;;;;;1.49;85.98;99088.69;1632598;87;21219;-73
2021/03/16 03:56:51;;;;;;;57.55;27.55;;;;;;;1.42;85.93;99088.78;1632878;87;21175;-72
2021/03/16 03:59:44;;;;;;;51.50;25.08;;;;;;;1.42;85.96;99084.89;1651968;85;21730;-72
2021/03/16 04:02:30;;;;;;;48.38;25.70;;;;;;;1.41;85.99;99079.75;1670243;85;22098;-72
2021/03/16 04:05:17;;;;;;;50.15;27.00;;;;;;;1.37;86.08;99085.41;1670135;85;21654;-70
2021/03/16 04:08:04;;;;;;;54.08;26.75;;;;;;;1.37;86.00;99085.41;1669864;85;21227;-70
2021/03/16 04:10:50;;;;;;;49.40;25.68;;;;;;;1.33;86.01;99082.44;1670127;85;21214;-70
2021/03/16 04:13:36;;;;;;;51.40;25.90;;;;;;;1.31;85.95;99072.98;1643325;85;21218;-71
2021/03/16 04:16:22;;;;;;;50.95;27.70;;;;;;;1.28;86.03;99068.70;1643022;85;22153;-69
2021/03/16 04:19:09;;;;;;;49.53;26.42;;;;;;;1.28;86.13;99076.48;1619709;85;21214;-72
2021/03/16 04:21:56;;;;;;;58.23;28.25;;;;;;;1.26;86.29;99075.64;1637754;87;21214;-72
2021/03/16 04:24:42;;;;;;;55.35;29.45;;;;;;;1.24;86.37;99077.41;1643330;87;21189;-72
2021/03/16 04:27:28;;;;;;;66.45;31.68;;;;;;;1.21;86.42;99077.47;1643295;87;21189;-74
2021/03/16 04:30:15;;;;;;;59.40;29.70;;;;;;;1.17;86.53;99079.23;1649157;86;21196;-68
2021/03/16 04:33:02;;;;;;;57.75;31.62;;;;;;;1.15;86.64;99073.66;1642107;86;21271;-68
2021/03/16 04:35:57;;;;;;;54.67;29.07;;;;;;;1.14;86.70;99075.85;1690394;84;21246;-66
2021/03/16 04:38:44;;;;;;;58.48;27.65;;;;;;;1.13;86.95;99078.02;1670701;84;21159;-66
2021/03/16 04:41:29;;;;;;;62.65;29.10;;;;;;;1.13;86.87;99078.02;1677135;84;21269;-67
2021/03/16 04:44:16;;;;;;;60.80;28.70;;;;;;;1.14;86.93;99075.85;1662663;86;21281;-68
2021/03/16 04:47:03;;;;;;;71.12;32.23;;;;;;;1.15;87.02;99081.44;1662414;86;21222;-67
2021/03/16 04:49:49;;;;;;;69.97;30.75;;;;;;;1.16;87.00;99072.35;1665312;81;21215;-67
2021/03/16 04:52:36;;;;;;;70.42;32.03;;;;;;;1.16;86.95;99076.69;1664744;86;21248;-67
2021/03/16 04:55:22;;;;;;;63.63;28.32;;;;;;;1.18;86.88;99079.67;1677431;82;21172;-69
2021/03/16 04:58:07;;;;;;;65.62;30.00;;;;;;;1.20;86.83;99083.55;1693157;83;21658;-69
2021/03/16 05:00:54;;;;;;;61.98;31.57;;;;;;;1.24;86.87;99082.59;1665300;86;21160;-69
2021/03/16 05:03:41;;;;;;;64.33;30.97;;;;;;;1.28;86.72;99085.56;1661575;81;21231;-66
2021/03/16 05:06:28;;;;;;;63.40;31.33;;;;;;;1.31;86.41;99085.95;1635917;87;21203;-67
2021/03/16 05:09:14;;;;;;;61.08;30.30;;;;;;;1.31;86.45;99082.05;1636670;87;21273;-66
2021/03/16 05:12:00;;;;;;;66.55;29.48;;;;;;;1.34;86.39;99091.95;1656793;86;22289;-67
2021/03/16 05:14:46;;;;;;;70.15;30.20;;;;;;;1.40;86.29;99093.58;1655274;86;21208;-68
2021/03/16 05:17:32;;;;;;;72.27;30.15;;;;;;;1.49;86.16;99089.53;1648197;86;21726;-66
2021/03/16 05:20:19;;;;;;;85.30;31.02;;;;;;;1.61;85.79;99089.77;1689827;81;21267;-66
2021/03/16 05:23:04;;;;;;;70.90;30.80;;;;;;;1.67;85.33;99089.67;1700287;84;21219;-67
2021/03/16 05:25:50;;;;;;;62.40;28.90;;;;;;;1.69;85.15;99087.91;1700315;83;21249;-66
2021/03/16 05:28:36;;;;;;;59.90;28.10;;;;;;;1.72;85.18;99091.73;1701495;84;21689;-65
2021/03/16 05:31:22;;;;;;;62.13;28.20;;;;;;;1.73;84.99;99093.91;1732474;82;21191;-67
2021/03/16 05:34:09;;;;;;;68.28;28.73;;;;;;;1.75;84.88;99094.30;1722355;79;21343;-68
2021/03/16 05:36:55;;;;;;;55.63;27.42;;;;;;;1.78;84.76;99092.94;1733520;79;21189;-68
2021/03/16 05:39:42;;;;;;;65.03;30.55;;;;;;;1.84;84.64;99095.43;1762570;79;21490;-68
2021/03/16 05:42:27;;;;;;;61.48;28.77;;;;;;;1.89;84.62;99094.89;1768184;79;21182;-68
2021/03/16 05:45:15;;;;;;;59.63;29.10;;;;;;;1.93;84.45;99090.48;1760702;79;21192;-69
2021/03/16 05:48:01;;;;;;;59.42;28.52;;;;;;;1.96;84.34;99087.84;1751287;79;21185;-69
2021/03/16 05:50:49;;;;;;;58.20;27.58;;;;;;;2.01;84.24;99091.66;1684339;79;21211;-68
2021/03/16 05:53:35;;;;;;;49.05;25.30;;;;;;;2.06;84.07;99092.42;1668375;85;22763;-68
2021/03/16 05:56:21;;;;;;;59.48;27.20;;;;;;;2.11;84.06;99093.19;1660818;85;21238;-67
2021/03/16 05:59:07;;;;;;;52.65;25.62;;;;;;;2.17;84.23;99095.67;1646493;86;21150;-67
2021/03/16 06:01:53;;;;;;;51.85;26.12;;;;;;;2.23;83.64;99098.58;1649568;86;21453;-67
2021/03/16 06:04:47;;;;;;;51.13;23.73;;;;;;;2.31;83.61;99098.84;1669503;80;21187;-68
2021/03/16 06:07:34;;;;;;;55.35;24.75;;;;;;;2.38;82.72;99103.92;1712177;82;21186;-68
2021/03/16 06:10:22;;;;;;;49.25;25.00;;;;;;;2.47;82.59;99102.44;1708033;82;21198;-69
2021/03/16 06:13:15;;;;;;;59.95;27.50;;;;;;;2.47;82.59;99102.44;1702339;83;21206;-68
2021/03/16 06:16:14;;;;;;;51.77;24.35;;;;;;;2.51;82.67;99108.00;1707880;82;21183;-69
2021/03/16 06:19:01;;;;;;;52.60;23.77;;;;;;;2.64;82.48;99104.23;1801340;76;22913;-69
2021/03/16 06:22:03;;;;;;;49.10;23.85;;;;;;;2.66;82.38;99112.85;1668799;84;21182;-68
2021/03/16 06:24:50;;;;;;;48.33;22.75;;;;;;;2.76;82.33;99121.75;1706714;83;21473;-67
2021/03/16 06:27:36;;;;;;;48.95;23.85;;;;;;;2.81;81.40;99118.19;1707688;83;21195;-66
2021/03/16 06:30:26;;;;;;;52.95;26.12;;;;;;;2.88;81.99;99121.52;1697247;83;21224;-67
2021/03/16 06:33:22;;;;;;;47.38;23.60;;;;;;;3.01;81.84;99122.92;1686234;84;21153;-66
2021/03/16 06:36:09;;;;;;;50.00;25.08;;;;;;;3.17;81.07;99116.09;1865144;75;21823;-67
2021/03/16 06:38:55;;;;;;;46.05;22.90;;;;;;;3.42;80.15;99121.57;1893751;75;21182;-68
2021/03/16 06:41:41;;;;;;;47.80;22.98;;;;;;;3.42;80.15;99121.57;1893874;75;21092;-68
2021/03/16 06:44:27;;;;;;;45.12;22.13;;;;;;;3.51;79.86;99124.80;1893154;75;20990;-67
2021/03/16 06:47:15;;;;;;;48.68;22.75;;;;;;;3.81;78.84;99123.63;1891767;75;21365;-66
2021/03/16 06:50:01;;;;;;;44.65;21.10;;;;;;;4.13;78.67;99121.48;1826599;75;21191;-66
2021/03/16 06:52:51;;;;;;;43.92;21.77;;;;;;;4.60;78.05;99126.27;1727723;82;21188;-67
2021/03/16 06:55:37;;;;;;;39.80;19.27;;;;;;;4.98;74.70;99126.91;1730106;82;21214;-68
2021/03/16 06:58:32;;;;;;;33.67;18.00;;;;;;;5.42;73.64;99141.17;1727734;82;21134;-68
2021/03/16 07:01:20;;;;;;;32.85;17.25;;;;;;;5.77;70.77;99144.85;1721597;82;21135;-66
2021/03/16 07:04:14;;;;;;;33.67;18.87;;;;;;;5.89;70.63;99148.39;1729721;81;21175;-67
2021/03/16 07:07:00;;;;;;;38.35;20.68;;;;;;;5.89;71.46;99153.16;1703587;83;21174;-69
2021/03/16 07:09:47;;;;;;;32.08;17.85;;;;;;;6.04;70.95;99147.03;1709370;83;21176;-70
2021/03/16 07:12:35;;;;;;;31.30;17.60;;;;;;;6.17;69.87;99141.79;1706324;82;21295;-69
2021/03/16 07:15:23;;;;;;;35.23;17.87;;;;;;;6.43;68.66;99136.93;1738343;82;21187;-68
2021/03/16 07:18:10;;;;;;;30.12;17.52;;;;;;;6.58;67.63;99146.00;1741058;81;21190;-69
2021/03/16 07:20:58;;;;;;;29.07;15.70;;;;;;;6.70;68.77;99145.55;1746445;79;21383;-68
2021/03/16 07:23:52;;;;;;;28.20;15.25;;;;;;;7.03;67.58;99136.02;1780841;79;21194;-67
2021/03/16 07:26:39;;;;;;;30.50;15.13;;;;;;;7.22;65.14;99144.00;1773818;79;21190;-67
2021/03/16 07:29:25;;;;;;;33.55;16.85;;;;;;;7.20;64.91;99135.39;1790090;78;21496;-68
2021/03/16 07:32:13;;;;;;;36.30;15.50;;;;;;;7.55;64.91;99129.19;1790635;80;21659;-68
2021/03/16 07:35:02;;;;;;;32.50;14.50;;;;;;;7.82;63.38;99134.20;1743308;79;21452;-69
2021/03/16 07:37:49;;;;;;;32.25;16.42;;;;;;;7.94;63.04;99115.36;1790044;79;21157;-70
2021/03/16 07:40:41;;;;;;;28.57;15.38;;;;;;;8.33;62.26;99119.34;1773946;79;21654;-69
2021/03/16 07:43:36;;;;;;;25.62;11.97;;;;;;;8.75;59.90;99117.52;1766273;79;21657;-70
2021/03/16 07:46:22;;;;;;;28.32;14.30;;;;;;;8.77;58.80;99120.45;1774651;79;21173;-70
2021/03/16 07:52:19;;;;;;;26.30;15.10;;;;;;;8.89;59.44;99107.69;1701778;83;21613;-68
2021/03/16 07:55:08;;;;;;;30.05;14.70;;;;;;;9.26;58.16;99104.64;1714103;83;21344;-67
2021/03/16 07:58:12;;;;;;;30.43;16.05;;;;;;;9.57;58.00;99093.03;1655842;86;21263;-68
2021/03/16 08:01:06;;;;;;;32.33;16.82;;;;;;;9.84;56.63;99089.45;1705090;83;21256;-68
2021/03/16 08:04:10;;;;;;;36.23;16.02;;;;;;;10.08;55.53;99093.11;1708913;83;21381;-67
2021/03/16 08:07:03;;;;;;;29.25;16.07;;;;;;;9.93;55.09;99091.25;1651328;85;21443;-71
2021/03/16 08:09:52;;;;;;;27.32;15.75;;;;;;;9.78;55.93;99096.84;1706576;83;21210;-69
2021/03/16 08:12:39;;;;;;;32.23;16.75;;;;;;;9.78;56.02;99087.16;1713530;83;21175;-71
2021/03/16 08:15:26;;;;;;;32.30;15.72;;;;;;;10.11;55.62;99090.30;1703765;82;21214;-71
2021/03/16 08:18:28;;;;;;;33.08;15.45;;;;;;;10.53;55.71;99091.64;1717731;82;21223;-70
2021/03/16 08:21:14;;;;;;;26.35;15.05;;;;;;;10.99;54.58;99088.30;1730161;80;21249;-67
2021/03/16 08:24:13;;;;;;;30.17;15.45;;;;;;;11.24;52.97;99082.52;1763456;81;21189;-68
2021/03/16 08:27:00;;;;;;;25.97;15.60;;;;;;;11.51;51.97;99075.66;1720018;81;21189;-68
2021/03/16 08:29:48;;;;;;;30.50;14.83;;;;;;;11.93;51.24;99089.95;1745983;80;21210;-68
2021/03/16 08:32:35;;;;;;;23.45;13.72;;;;;;;11.94;49.81;99079.79;1748525;81;21625;-66
2021/03/16 08:35:22;;;;;;;29.48;13.85;;;;;;;12.01;50.00;99089.95;1752643;79;21150;-69
2021/03/16 08:38:08;;;;;;;26.65;14.07;;;;;;;11.86;50.22;99091.22;1771111;80;21224;-70
2021/03/16 08:41:11;;;;;;;29.63;14.78;;;;;;;11.85;51.31;99084.26;1778924;80;21158;-70
2021/03/16 08:43:57;;;;;;;24.25;13.75;;;;;;;12.00;50.50;99090.91;1766615;80;21201;-71
2021/03/16 08:46:44;;;;;;;30.95;15.85;;;;;;;12.20;50.10;99076.05;1771002;80;21224;-71
2021/03/16 08:49:42;;;;;;;24.57;13.65;;;;;;;12.52;48.77;99082.01;1767726;80;21153;-71
2021/03/16 08:52:30;;;;;;;29.75;16.35;;;;;;;12.77;48.51;99076.53;1730403;81;21173;-69
2021/03/16 08:55:28;;;;;;;27.93;15.98;;;;;;;12.73;48.73;99074.53;1728043;81;21233;-67
2021/03/16 08:58:14;;;;;;;28.75;16.80;;;;;;;13.14;49.16;99075.03;1728318;81;21201;-71
2021/03/16 09:01:01;;;;;;;32.55;16.42;;;;;;;13.56;46.71;99075.84;1730687;81;21272;-68
2021/03/16 09:03:51;;;;;;;23.60;14.00;;;;;;;13.49;46.72;99077.20;1730784;81;21225;-67
2021/03/16 09:06:39;;;;;;;26.45;15.20;;;;;;;13.36;46.95;99077.63;1746104;79;21655;-70
2021/03/16 09:09:31;;;;;;;26.30;14.20;;;;;;;13.36;47.03;99067.05;1747345;82;21166;-68
2021/03/16 09:12:27;;;;;;;22.40;13.88;;;;;;;13.66;46.54;99071.27;1749293;81;21673;-69
2021/03/16 09:15:25;;;;;;;23.20;14.13;;;;;;;13.59;47.11;99071.66;1749660;80;21230;-69
2021/03/16 09:18:12;;;;;;;29.23;16.82;;;;;;;13.47;46.72;99072.48;1749465;82;21447;-69
2021/03/16 09:21:05;;;;;;;27.67;15.72;;;;;;;13.46;47.57;99072.13;1750693;79;21195;-69
2021/03/16 09:23:51;;;;;;;29.23;15.30;;;;;;;13.71;46.23;99071.80;1725558;83;21747;-67
2021/03/16 09:26:38;;;;;;;26.27;15.55;;;;;;;13.82;45.80;99074.09;1715366;83;21177;-68
2021/03/16 09:29:33;;;;;;;29.98;15.78;;;;;;;13.94;45.59;99080.84;1726167;83;21329;-70
2021/03/16 09:32:21;;;;;;;26.30;14.25;;;;;;;13.83;45.49;99078.45;1718899;82;21234;-68
2021/03/16 09:35:09;;;;;;;27.77;14.05;;;;;;;13.34;46.29;99076.88;1736557;77;21141;-69
2021/03/16 09:37:56;;;;;;;27.80;13.88;;;;;;;12.79;48.21;99082.09;1789839;77;21219;-70
2021/03/16 09:40:42;;;;;;;30.88;15.88;;;;;;;12.11;48.61;99095.92;1809777;77;21155;-70
2021/03/16 09:43:32;;;;;;;30.45;16.57;;;;;;;11.34;50.62;99087.63;1822042;77;21359;-70
2021/03/16 09:46:03;;;;;;;30.40;15.72;;;;;;;10.65;52.84;99083.11;1811143;77;21175;-70
2021/03/16 09:48:32;;;;;;;29.00;16.23;;;;;;;10.20;54.81;99088.52;1801175;77;21210;-71
2021/03/16 09:51:14;;;;;;;33.42;17.20;;;;;;;9.83;55.99;99083.83;1781239;77;21190;-68
2021/03/16 09:53:47;;;;;;;38.23;17.20;;;;;;;9.58;57.16;99092.09;1737974;81;21115;-69
2021/03/16 09:56:15;;;;;;;26.57;15.85;;;;;;;9.33;58.28;99103.41;1735836;81;21645;-68
2021/03/16 09:58:50;;;;;;;30.65;17.00;;;;;;;8.98;58.91;99094.97;1729802;81;21186;-69
2021/03/16 10:01:21;;;;;;;34.80;17.32;;;;;;;8.74;60.19;99096.10;1716013;82;21187;-67
2021/03/16 10:04:02;;;;;;;32.95;17.10;;;;;;;8.59;61.07;99101.14;1747585;81;21678;-67
2021/03/16 10:06:36;;;;;;;33.08;18.27;;;;;;;8.40;61.41;99110.30;1752001;79;21216;-70
2021/03/16 10:09:18;;;;;;;31.02;16.75;;;;;;;8.11;62.27;99109.37;1764976;81;21348;-70
2021/03/16 10:11:45;;;;;;;32.67;18.20;;;;;;;7.93;63.46;99097.91;1765444;81;21161;-72
2021/03/16 10:14:27;;;;;;;36.35;19.32;;;;;;;7.86;63.57;99098.62;1758316;79;21212;-68
2021/03/16 10:16:55;;;;;;;32.05;18.15;;;;;;;7.83;63.60;99097.91;1740205;81;21228;-67
2021/03/16 10:19:25;;;;;;;38.17;19.27;;;;;;;7.78;63.79;99100.27;1747880;81;21201;-71
2021/03/16 10:21:53;;;;;;;45.30;18.62;;;;;;;7.73;64.19;99100.92;1737343;80;21375;-67
2021/03/16 10:24:27;;;;;;;38.92;16.85;;;;;;;7.69;65.03;99105.05;1767846;80;21222;-67
2021/03/16 10:27:00;;;;;;;41.85;19.25;;;;;;;7.59;65.60;99101.92;1756037;80;21194;-67
2021/03/16 10:29:28;;;;;;;34.50;17.57;;;;;;;7.49;66.03;99096.69;1760988;80;21644;-66
2021/03/16 10:31:58;;;;;;;39.98;18.95;;;;;;;7.38;66.34;99105.43;1746927;80;21705;-68
2021/03/16 10:34:26;;;;;;;38.80;17.17;;;;;;;7.31;66.90;99099.13;1757523;80;21366;-67
2021/03/16 10:36:54;;;;;;;42.58;18.77;;;;;;;7.41;66.83;99100.94;1705694;78;21182;-74
2021/03/16 10:39:22;;;;;;;32.00;17.82;;;;;;;7.57;66.34;99106.41;1640736;84;21694;-72
2021/03/16 10:41:50;;;;;;;34.00;17.65;;;;;;;7.75;66.25;99120.06;1701625;82;21217;-72
2021/03/16 10:44:19;;;;;;;32.30;17.10;;;;;;;8.27;65.06;99106.94;1695703;82;21195;-72
2021/03/16 10:46:48;;;;;;;38.40;18.25;;;;;;;8.94;62.53;99101.28;1690164;84;21841;-73
2021/03/16 10:49:19;;;;;;;37.50;17.60;;;;;;;9.50;61.10;99098.64;1672589;83;21207;-73
2021/03/16 10:51:46;;;;;;;32.78;17.82;;;;;;;10.02;58.38;99097.36;1716804;80;21221;-70
2021/03/16 10:54:14;;;;;;;29.82;15.88;;;;;;;10.47;56.95;99094.62;1711708;83;21233;-68
2021/03/16 10:56:42;;;;;;;31.82;15.70;;;;;;;10.75;55.45;99094.45;1708354;82;21638;-69
2021/03/16 10:59:10;;;;;;;28.02;13.98;;;;;;;10.91;54.78;99094.00;1645369;85;21383;-68
2021/03/16 11:01:37;;;;;;;31.20;14.98;;;;;;;11.02;54.42;99088.99;1665599;85;21562;-68
2021/03/16 11:04:05;;;;;;;33.63;17.07;;;;;;;11.27;53.43;99098.14;1675158;84;21648;-69
2021/03/16 11:06:34;;;;;;;32.08;15.30;;;;;;;11.44;53.14;99090.14;1672818;79;21192;-72
2021/03/16 11:09:03;;;;;;;32.73;15.15;;;;;;;11.52;53.14;99087.89;1661754;84;21197;-73
2021/03/16 11:11:31;;;;;;;23.92;14.35;;;;;;;11.55;52.91;99087.73;1684675;83;21829;-71
2021/03/16 11:13:58;;;;;;;27.95;15.30;;;;;;;11.66;53.48;99086.26;1672120;84;21207;-73
2021/03/16 11:16:28;;;;;;;28.20;14.58;;;;;;;11.60;52.24;99081.36;1679004;84;21160;-75
2021/03/16 11:18:56;;;;;;;28.25;15.78;;;;;;;11.26;54.09;99078.01;1668109;84;21246;-72
2021/03/16 11:21:24;;;;;;;24.23;14.15;;;;;;;11.14;53.67;99075.59;1682867;81;21195;-66
2021/03/16 11:23:52;;;;;;;24.95;13.65;;;;;;;11.09;54.10;99075.02;1755766;80;21443;-68
2021/03/16 11:26:20;;;;;;;26.95;15.10;;;;;;;11.01;54.25;99067.98;1731833;80;21119;-66
2021/03/16 11:28:47;;;;;;;28.77;15.25;;;;;;;10.92;54.06;99067.55;1767628;80;21179;-67
2021/03/16 11:31:15;;;;;;;27.95;14.90;;;;;;;10.92;53.53;99079.88;1766422;80;21259;-67
2021/03/16 11:34:03;;;;;;;33.05;16.00;;;;;;;10.89;53.81;99064.26;1764972;80;21242;-66
2021/03/16 11:36:50;;;;;;;36.63;17.15;;;;;;;10.91;54.74;99062.39;1807754;77;21631;-70
2021/03/16 11:39:36;;;;;;;30.88;16.10;;;;;;;10.89;55.54;99061.63;1817588;78;21729;-71
2021/03/16 11:42:22;;;;;;;40.52;18.42;;;;;;;10.66;55.52;99062.41;1819396;78;21586;-71
2021/03/16 11:45:10;;;;;;;30.30;18.60;;;;;;;10.26;56.23;99068.47;1778089;79;21186;-73
2021/03/16 11:47:57;;;;;;;36.58;17.45;;;;;;;10.04;57.67;99065.25;1814884;78;21182;-71
2021/03/16 11:50:44;;;;;;;40.15;21.82;;;;;;;10.04;57.78;99062.15;1806222;78;21177;-71
2021/03/16 11:53:32;;;;;;;32.23;16.50;;;;;;;10.10;57.33;99066.26;1728854;76;21259;-65
2021/03/16 11:56:18;;;;;;;36.48;17.67;;;;;;;9.98;57.51;99062.45;1713215;82;21189;-67
2021/03/16 11:59:03;;;;;;;28.90;16.40;;;;;;;9.66;57.93;99061.47;1716476;83;21234;-67
2021/03/16 12:01:50;;;;;;;33.75;18.55;;;;;;;9.41;59.21;99060.08;1683382;84;21240;-67
2021/03/16 12:04:38;;;;;;;37.73;19.65;;;;;;;9.26;59.87;99056.87;1662857;85;21278;-65
2021/03/16 12:07:24;;;;;;;38.40;19.42;;;;;;;9.21;60.58;99061.52;1722667;78;21252;-68
2021/03/16 12:10:11;;;;;;;38.63;16.82;;;;;;;9.13;61.05;99051.83;1728939;81;21197;-69
2021/03/16 12:12:57;;;;;;;39.40;18.12;;;;;;;8.93;61.83;99044.92;1749043;81;21179;-68
2021/03/16 12:15:43;;;;;;;40.95;19.32;;;;;;;8.96;61.76;99049.55;1749699;81;21183;-68
2021/03/16 12:18:31;;;;;;;38.40;21.77;;;;;;;9.13;61.99;99050.52;1749042;80;21755;-72
2021/03/16 12:21:18;;;;;;;37.48;18.02;;;;;;;9.25;61.28;99043.38;1733132;82;21162;-71
2021/03/16 12:24:07;;;;;;;33.75;17.55;;;;;;;9.41;61.20;99051.36;1756104;80;21644;-68
2021/03/16 12:26:57;;;;;;;38.42;17.27;;;;;;;9.53;60.28;99052.52;1780833;80;21212;-65
2021/03/16 12:29:44;;;;;;;29.37;15.45;;;;;;;9.52;59.45;99054.74;1780693;80;21193;-67
2021/03/16 12:32:30;;;;;;;39.30;17.87;;;;;;;9.48;59.75;99054.50;1780384;80;21358;-67
2021/03/16 12:35:17;;;;;;;32.25;16.20;;;;;;;9.51;60.35;99051.74;1780326;80;21132;-65
2021/03/16 12:38:04;;;;;;;30.15;16.80;;;;;;;9.71;60.76;99054.22;1780202;78;21233;-72
2021/03/16 12:40:51;;;;;;;32.05;16.70;;;;;;;9.76;59.39;99055.30;1820146;78;21161;-72